Check out our new BloomSky Weather System.

Active alerts


No alerts


Thunder radar  blitzortung!


Rain radar more information rain snow radar


Visit our other weather sites:

Template documentation
and downloads

And another site



Weather Underground History page Text

Daily Summary for February 1, 2018 Units:  Both    English   Metric
« Previous Day
Next Day »
Daily Weekly Monthly Yearly Custom
  High: Low: Average:
Temperature: TemperatureF °F /  -17.8 °C 54.9 °F /  12.7 °C 65.2 °F /  18.4 °C
Dew Point: DewpointF °F /  -17.8 °C 46.6 °F /  8.1 °C 57.5 °F /  14.2 °C
Humidity: Humidity % 52 % 77 %
Wind Speed: WindSpeedMPH mph /  0 km/h - 2.6 mph /  4.2 km/h
Wind Gust: WindSpeedGustMPH mph /  0 km/h - -
Wind:- - WSW
Pressure: PressureIn in /  0 hPa 29.96 in /  1014.4 hPa -
Precipitation: 0.00 in /  0 mm    
Historical Graphs
 
 
Tabular Data for February 1, 2018
Time Temperature Dew Point Pressure Wind Wind Speed Wind Gust Humidity Rainfall Rate (Hourly)
TemperatureF °F /  -17.8 °C DewpointF °F /  -17.8 °C PressureIn in /  0 hPa Calm     Humidity % HourlyPrecipIn in /  0 mm
00:04 59.7 °F /  15.4 °C 56.1 °F /  13.4 °C 29.97 in /  1014.8 hPa South 5.0 mph /  8 km/h 14.0 mph /  22.5 km/h 88 % 0.00 in /  0 mm
00:09 59.9 °F /  15.5 °C 56.3 °F /  13.5 °C 29.97 in /  1014.8 hPa SSE 4.0 mph /  6.4 km/h 11.0 mph /  17.7 km/h 88 % 0.00 in /  0 mm
00:14 60.1 °F /  15.6 °C 56.5 °F /  13.6 °C 29.97 in /  1014.8 hPa South 2.0 mph /  3.2 km/h 13.0 mph /  20.9 km/h 88 % 0.00 in /  0 mm
00:19 60.3 °F /  15.7 °C 56.7 °F /  13.7 °C 29.97 in /  1014.8 hPa SSE 3.0 mph /  4.8 km/h 13.0 mph /  20.9 km/h 88 % 0.00 in /  0 mm
00:24 60.3 °F /  15.7 °C 56.7 °F /  13.7 °C 29.97 in /  1014.8 hPa SSW 6.0 mph /  9.7 km/h 13.0 mph /  20.9 km/h 88 % 0.00 in /  0 mm
00:29 60.3 °F /  15.7 °C 56.7 °F /  13.7 °C 29.97 in /  1014.8 hPa SW 7.0 mph /  11.3 km/h 12.0 mph /  19.3 km/h 88 % 0.00 in /  0 mm
00:34 60.3 °F /  15.7 °C 56.7 °F /  13.7 °C 29.97 in /  1014.8 hPa SSE 2.0 mph /  3.2 km/h 12.0 mph /  19.3 km/h 88 % 0.00 in /  0 mm
00:39 60.3 °F /  15.7 °C 56.7 °F /  13.7 °C 29.97 in /  1014.8 hPa SSW 4.0 mph /  6.4 km/h 11.0 mph /  17.7 km/h 88 % 0.00 in /  0 mm
00:44 60.3 °F /  15.7 °C 56.7 °F /  13.7 °C 29.97 in /  1014.8 hPa SE 3.0 mph /  4.8 km/h 11.0 mph /  17.7 km/h 88 % 0.00 in /  0 mm
00:49 60.3 °F /  15.7 °C 57.0 °F /  13.9 °C 29.97 in /  1014.8 hPa SSW 6.0 mph /  9.7 km/h 11.0 mph /  17.7 km/h 89 % 0.00 in /  0 mm
00:54 60.3 °F /  15.7 °C 57.0 °F /  13.9 °C 29.97 in /  1014.8 hPa South 3.0 mph /  4.8 km/h 11.0 mph /  17.7 km/h 89 % 0.00 in /  0 mm
00:59 60.3 °F /  15.7 °C 57.0 °F /  13.9 °C 29.96 in /  1014.4 hPa SSE 3.0 mph /  4.8 km/h 11.0 mph /  17.7 km/h 89 % 0.00 in /  0 mm
01:04 60.3 °F /  15.7 °C 57.0 °F /  13.9 °C 29.96 in /  1014.4 hPa South 4.0 mph /  6.4 km/h 9.0 mph /  14.5 km/h 89 % 0.00 in /  0 mm
01:09 60.3 °F /  15.7 °C 57.0 °F /  13.9 °C 29.97 in /  1014.8 hPa SW 3.0 mph /  4.8 km/h 9.0 mph /  14.5 km/h 89 % 0.00 in /  0 mm
01:14 60.1 °F /  15.6 °C 56.8 °F /  13.8 °C 29.97 in /  1014.8 hPa SSW 3.0 mph /  4.8 km/h 9.0 mph /  14.5 km/h 89 % 0.00 in /  0 mm
01:19 60.1 °F /  15.6 °C 56.8 °F /  13.8 °C 29.97 in /  1014.8 hPa SSW 4.0 mph /  6.4 km/h 8.0 mph /  12.9 km/h 89 % 0.00 in /  0 mm
01:24 60.1 °F /  15.6 °C 56.8 °F /  13.8 °C 29.97 in /  1014.8 hPa SSW 2.0 mph /  3.2 km/h 8.0 mph /  12.9 km/h 89 % 0.00 in /  0 mm
01:29 60.1 °F /  15.6 °C 56.8 °F /  13.8 °C 29.97 in /  1014.8 hPa South 3.0 mph /  4.8 km/h 8.0 mph /  12.9 km/h 89 % 0.00 in /  0 mm
01:34 60.1 °F /  15.6 °C 57.2 °F /  14 °C 29.97 in /  1014.8 hPa SSW 6.0 mph /  9.7 km/h 7.0 mph /  11.3 km/h 90 % 0.00 in /  0 mm
01:39 60.1 °F /  15.6 °C 57.2 °F /  14 °C 29.97 in /  1014.8 hPa SSW 4.0 mph /  6.4 km/h 9.0 mph /  14.5 km/h 90 % 0.00 in /  0 mm
01:45 60.1 °F /  15.6 °C 56.8 °F /  13.8 °C 29.97 in /  1014.8 hPa South 1.0 mph /  1.6 km/h 9.0 mph /  14.5 km/h 89 % 0.00 in /  0 mm
01:50 60.1 °F /  15.6 °C 57.2 °F /  14 °C 29.97 in /  1014.8 hPa SSW 2.0 mph /  3.2 km/h 9.0 mph /  14.5 km/h 90 % 0.00 in /  0 mm
01:55 59.9 °F /  15.5 °C 57.0 °F /  13.9 °C 29.97 in /  1014.8 hPa SW 3.0 mph /  4.8 km/h 7.0 mph /  11.3 km/h 90 % 0.00 in /  0 mm
02:00 59.9 °F /  15.5 °C 57.0 °F /  13.9 °C 29.97 in /  1014.8 hPa SSW 4.0 mph /  6.4 km/h 6.0 mph /  9.7 km/h 90 % 0.00 in /  0 mm
02:05 59.9 °F /  15.5 °C 57.0 °F /  13.9 °C 29.96 in /  1014.4 hPa SSW 3.0 mph /  4.8 km/h 8.0 mph /  12.9 km/h 90 % 0.00 in /  0 mm
02:10 59.9 °F /  15.5 °C 57.0 °F /  13.9 °C 29.96 in /  1014.4 hPa SSW 2.0 mph /  3.2 km/h 8.0 mph /  12.9 km/h 90 % 0.00 in /  0 mm
02:15 59.7 °F /  15.4 °C 56.8 °F /  13.8 °C 29.96 in /  1014.4 hPa SSW 4.0 mph /  6.4 km/h 8.0 mph /  12.9 km/h 90 % 0.00 in /  0 mm
02:20 59.5 °F /  15.3 °C 56.7 °F /  13.7 °C 29.96 in /  1014.4 hPa South 1.0 mph /  1.6 km/h 8.0 mph /  12.9 km/h 90 % 0.00 in /  0 mm
02:21 59.5 °F /  15.3 °C 56.7 °F /  13.7 °C 29.96 in /  1014.4 hPa South 2.0 mph /  3.2 km/h 8.0 mph /  12.9 km/h 90 % 0.00 in /  0 mm
02:26 59.5 °F /  15.3 °C 56.8 °F /  13.8 °C 29.96 in /  1014.4 hPa SSW 2.0 mph /  3.2 km/h 8.0 mph /  12.9 km/h 91 % 0.00 in /  0 mm
02:31 59.4 °F /  15.2 °C 56.7 °F /  13.7 °C 29.96 in /  1014.4 hPa Calm   6.0 mph /  9.7 km/h 91 % 0.00 in /  0 mm
02:36 59.2 °F /  15.1 °C 56.5 °F /  13.6 °C 29.96 in /  1014.4 hPa Calm   4.0 mph /  6.4 km/h 91 % 0.00 in /  0 mm
02:41 59.2 °F /  15.1 °C 56.5 °F /  13.6 °C 29.96 in /  1014.4 hPa SSW 2.0 mph /  3.2 km/h 3.0 mph /  4.8 km/h 91 % 0.00 in /  0 mm
02:46 59.0 °F /  15 °C 56.3 °F /  13.5 °C 29.96 in /  1014.4 hPa South 2.0 mph /  3.2 km/h 3.0 mph /  4.8 km/h 91 % 0.00 in /  0 mm
02:51 58.8 °F /  14.9 °C 56.5 °F /  13.6 °C 29.96 in /  1014.4 hPa SW 2.0 mph /  3.2 km/h 3.0 mph /  4.8 km/h 92 % 0.00 in /  0 mm
02:56 58.8 °F /  14.9 °C 56.5 °F /  13.6 °C 29.96 in /  1014.4 hPa SSE 2.0 mph /  3.2 km/h 4.0 mph /  6.4 km/h 92 % 0.00 in /  0 mm
03:01 58.8 °F /  14.9 °C 56.5 °F /  13.6 °C 29.96 in /  1014.4 hPa SSE 2.0 mph /  3.2 km/h 5.0 mph /  8 km/h 92 % 0.00 in /  0 mm
03:06 58.8 °F /  14.9 °C 56.5 °F /  13.6 °C 29.96 in /  1014.4 hPa SSW 1.0 mph /  1.6 km/h 7.0 mph /  11.3 km/h 92 % 0.00 in /  0 mm
03:12 58.8 °F /  14.9 °C 56.5 °F /  13.6 °C 29.96 in /  1014.4 hPa South 1.0 mph /  1.6 km/h 7.0 mph /  11.3 km/h 92 % 0.00 in /  0 mm
03:17 58.8 °F /  14.9 °C 56.5 °F /  13.6 °C 29.96 in /  1014.4 hPa SSW 1.0 mph /  1.6 km/h 7.0 mph /  11.3 km/h 92 % 0.00 in /  0 mm
03:22 58.6 °F /  14.8 °C 56.3 °F /  13.5 °C 29.96 in /  1014.4 hPa SSE 4.0 mph /  6.4 km/h 4.0 mph /  6.4 km/h 92 % 0.00 in /  0 mm
03:27 58.6 °F /  14.8 °C 56.7 °F /  13.7 °C 29.96 in /  1014.4 hPa SSW 1.0 mph /  1.6 km/h 4.0 mph /  6.4 km/h 93 % 0.00 in /  0 mm
03:32 58.6 °F /  14.8 °C 56.7 °F /  13.7 °C 29.96 in /  1014.4 hPa South 1.0 mph /  1.6 km/h 4.0 mph /  6.4 km/h 93 % 0.00 in /  0 mm
03:37 58.5 °F /  14.7 °C 56.5 °F /  13.6 °C 29.96 in /  1014.4 hPa Calm   4.0 mph /  6.4 km/h 93 % 0.00 in /  0 mm
03:42 58.3 °F /  14.6 °C 56.3 °F /  13.5 °C 29.96 in /  1014.4 hPa South 1.0 mph /  1.6 km/h 4.0 mph /  6.4 km/h 93 % 0.00 in /  0 mm
03:47 58.3 °F /  14.6 °C 56.3 °F /  13.5 °C 29.96 in /  1014.4 hPa SSW 1.0 mph /  1.6 km/h 2.0 mph /  3.2 km/h 93 % 0.00 in /  0 mm
03:52 58.1 °F /  14.5 °C 56.3 °F /  13.5 °C 29.96 in /  1014.4 hPa SSW 1.0 mph /  1.6 km/h 3.0 mph /  4.8 km/h 94 % 0.00 in /  0 mm
03:57 57.9 °F /  14.4 °C 56.1 °F /  13.4 °C 29.96 in /  1014.4 hPa South 1.0 mph /  1.6 km/h 3.0 mph /  4.8 km/h 94 % 0.00 in /  0 mm
04:02 57.9 °F /  14.4 °C 56.1 °F /  13.4 °C 29.96 in /  1014.4 hPa SSE 2.0 mph /  3.2 km/h 3.0 mph /  4.8 km/h 94 % 0.00 in /  0 mm
04:07 57.9 °F /  14.4 °C 56.1 °F /  13.4 °C 29.96 in /  1014.4 hPa SE 2.0 mph /  3.2 km/h 5.0 mph /  8 km/h 94 % 0.00 in /  0 mm
04:12 57.9 °F /  14.4 °C 56.1 °F /  13.4 °C 29.96 in /  1014.4 hPa Calm   5.0 mph /  8 km/h 94 % 0.00 in /  0 mm
04:17 57.7 °F /  14.3 °C 55.9 °F /  13.3 °C 29.96 in /  1014.4 hPa SSW 1.0 mph /  1.6 km/h 5.0 mph /  8 km/h 94 % 0.00 in /  0 mm
04:22 57.9 °F /  14.4 °C 56.5 °F /  13.6 °C 29.96 in /  1014.4 hPa SSW 1.0 mph /  1.6 km/h 3.0 mph /  4.8 km/h 95 % 0.00 in /  0 mm
04:27 57.9 °F /  14.4 °C 56.5 °F /  13.6 °C 29.96 in /  1014.4 hPa Calm   3.0 mph /  4.8 km/h 95 % 0.00 in /  0 mm
04:32 58.1 °F /  14.5 °C 56.7 °F /  13.7 °C 29.96 in /  1014.4 hPa SW 2.0 mph /  3.2 km/h 3.0 mph /  4.8 km/h 95 % 0.00 in /  0 mm
04:37 58.3 °F /  14.6 °C 56.8 °F /  13.8 °C 29.96 in /  1014.4 hPa SSE 3.0 mph /  4.8 km/h 3.0 mph /  4.8 km/h 95 % 0.00 in /  0 mm
04:42 58.3 °F /  14.6 °C 56.8 °F /  13.8 °C 29.96 in /  1014.4 hPa SE 1.0 mph /  1.6 km/h 3.0 mph /  4.8 km/h 95 % 0.00 in /  0 mm
04:47 58.3 °F /  14.6 °C 56.8 °F /  13.8 °C 29.96 in /  1014.4 hPa Calm   3.0 mph /  4.8 km/h 95 % 0.00 in /  0 mm
04:52 57.9 °F /  14.4 °C 56.5 °F /  13.6 °C 29.96 in /  1014.4 hPa Calm   3.0 mph /  4.8 km/h 95 % 0.00 in /  0 mm
04:57 57.7 °F /  14.3 °C 56.3 °F /  13.5 °C 29.96 in /  1014.4 hPa Calm   2.0 mph /  3.2 km/h 95 % 0.00 in /  0 mm
05:02 57.4 °F /  14.1 °C 55.6 °F /  13.1 °C 29.96 in /  1014.4 hPa Calm   2.0 mph /  3.2 km/h 94 % 0.00 in /  0 mm
05:07 57.0 °F /  13.9 °C 55.2 °F /  12.9 °C 29.96 in /  1014.4 hPa Calm   1.0 mph /  1.6 km/h 94 % 0.00 in /  0 mm
05:12 56.8 °F /  13.8 °C 55.2 °F /  12.9 °C 29.96 in /  1014.4 hPa Calm   1.0 mph /  1.6 km/h 94 % 0.00 in /  0 mm
05:17 56.7 °F /  13.7 °C 55.0 °F /  12.8 °C 29.96 in /  1014.4 hPa Calm   1.0 mph /  1.6 km/h 94 % 0.00 in /  0 mm
05:22 56.5 °F /  13.6 °C 55.0 °F /  12.8 °C 29.96 in /  1014.4 hPa Calm   1.0 mph /  1.6 km/h 95 % 0.00 in /  0 mm
05:28 56.5 °F /  13.6 °C 55.0 °F /  12.8 °C 29.96 in /  1014.4 hPa SSE 1.0 mph /  1.6 km/h 1.0 mph /  1.6 km/h 95 % 0.00 in /  0 mm
05:33 56.5 °F /  13.6 °C 55.0 °F /  12.8 °C 29.96 in /  1014.4 hPa Calm   1.0 mph /  1.6 km/h 95 % 0.00 in /  0 mm
05:38 56.5 °F /  13.6 °C 55.0 °F /  12.8 °C 29.96 in /  1014.4 hPa SSE 1.0 mph /  1.6 km/h 1.0 mph /  1.6 km/h 95 % 0.00 in /  0 mm
05:43 56.5 °F /  13.6 °C 55.4 °F /  13 °C 29.96 in /  1014.4 hPa Calm   1.0 mph /  1.6 km/h 96 % 0.00 in /  0 mm
05:48 56.3 °F /  13.5 °C 54.9 °F /  12.7 °C 29.96 in /  1014.4 hPa Calm   1.0 mph /  1.6 km/h 95 % 0.00 in /  0 mm
05:53 56.1 °F /  13.4 °C 54.7 °F /  12.6 °C 29.96 in /  1014.4 hPa Calm   1.0 mph /  1.6 km/h 95 % 0.00 in /  0 mm
05:58 56.1 °F /  13.4 °C 55.0 °F /  12.8 °C 29.96 in /  1014.4 hPa Calm   1.0 mph /  1.6 km/h 96 % 0.00 in /  0 mm
06:03 55.9 °F /  13.3 °C 54.9 °F /  12.7 °C 29.97 in /  1014.8 hPa Calm   1.0 mph /  1.6 km/h 96 % 0.00 in /  0 mm
06:08 55.9 °F /  13.3 °C 54.9 °F /  12.7 °C 29.97 in /  1014.8 hPa Calm   1.0 mph /  1.6 km/h 96 % 0.00 in /  0 mm
06:13 55.9 °F /  13.3 °C 54.9 °F /  12.7 °C 29.97 in /  1014.8 hPa Calm     96 % 0.00 in /  0 mm
06:18 55.8 °F /  13.2 °C 54.7 °F /  12.6 °C 29.98 in /  1015.1 hPa Calm     96 % 0.00 in /  0 mm
06:23 55.8 °F /  13.2 °C 54.7 °F /  12.6 °C 29.98 in /  1015.1 hPa Calm     96 % 0.00 in /  0 mm
06:28 55.6 °F /  13.1 °C 54.5 °F /  12.5 °C 29.97 in /  1014.8 hPa Calm     96 % 0.00 in /  0 mm
06:33 55.6 °F /  13.1 °C 54.5 °F /  12.5 °C 29.97 in /  1014.8 hPa Calm     96 % 0.00 in /  0 mm
06:38 55.2 °F /  12.9 °C 54.1 °F /  12.3 °C 29.98 in /  1015.1 hPa Calm     96 % 0.00 in /  0 mm
06:43 55.2 °F /  12.9 °C 54.1 °F /  12.3 °C 29.98 in /  1015.1 hPa Calm     96 % 0.00 in /  0 mm
06:48 55.4 °F /  13 °C 54.5 °F /  12.5 °C 29.98 in /  1015.1 hPa Calm     97 % 0.00 in /  0 mm
06:53 55.6 °F /  13.1 °C 54.7 °F /  12.6 °C 29.98 in /  1015.1 hPa Calm   1.0 mph /  1.6 km/h 97 % 0.00 in /  0 mm
06:58 55.6 °F /  13.1 °C 54.7 °F /  12.6 °C 29.98 in /  1015.1 hPa Calm   1.0 mph /  1.6 km/h 97 % 0.00 in /  0 mm
07:03 55.6 °F /  13.1 °C 54.7 °F /  12.6 °C 29.98 in /  1015.1 hPa Calm   1.0 mph /  1.6 km/h 97 % 0.00 in /  0 mm
07:08 55.2 °F /  12.9 °C 54.1 °F /  12.3 °C 29.98 in /  1015.1 hPa Calm   1.0 mph /  1.6 km/h 96 % 0.00 in /  0 mm
07:13 55.0 °F /  12.8 °C 54.0 °F /  12.2 °C 29.98 in /  1015.1 hPa Calm   1.0 mph /  1.6 km/h 96 % 0.00 in /  0 mm
07:18 54.9 °F /  12.7 °C 54.0 °F /  12.2 °C 29.98 in /  1015.1 hPa Calm   1.0 mph /  1.6 km/h 97 % 0.00 in /  0 mm
07:23 54.9 °F /  12.7 °C 54.0 °F /  12.2 °C 29.98 in /  1015.1 hPa Calm   1.0 mph /  1.6 km/h 97 % 0.00 in /  0 mm
07:28 55.0 °F /  12.8 °C 54.1 °F /  12.3 °C 29.98 in /  1015.1 hPa Calm   1.0 mph /  1.6 km/h 97 % 0.00 in /  0 mm
07:33 55.2 °F /  12.9 °C 54.3 °F /  12.4 °C 29.98 in /  1015.1 hPa Calm   1.0 mph /  1.6 km/h 97 % 0.00 in /  0 mm
07:38 55.2 °F /  12.9 °C 54.3 °F /  12.4 °C 29.98 in /  1015.1 hPa Calm   1.0 mph /  1.6 km/h 97 % 0.00 in /  0 mm
07:43 55.8 °F /  13.2 °C 54.9 °F /  12.7 °C 29.99 in /  1015.5 hPa Calm   1.0 mph /  1.6 km/h 97 % 0.00 in /  0 mm
07:48 55.9 °F /  13.3 °C 55.4 °F /  13 °C 29.99 in /  1015.5 hPa Calm   1.0 mph /  1.6 km/h 98 % 0.00 in /  0 mm
07:53 56.1 °F /  13.4 °C 55.2 °F /  12.9 °C 29.99 in /  1015.5 hPa Calm   1.0 mph /  1.6 km/h 97 % 0.00 in /  0 mm
07:58 56.1 °F /  13.4 °C 55.2 °F /  12.9 °C 29.99 in /  1015.5 hPa Calm   1.0 mph /  1.6 km/h 97 % 0.00 in /  0 mm
08:03 56.3 °F /  13.5 °C 55.4 °F /  13 °C 29.99 in /  1015.5 hPa Calm   1.0 mph /  1.6 km/h 97 % 0.00 in /  0 mm
08:08 56.5 °F /  13.6 °C 55.9 °F /  13.3 °C 29.99 in /  1015.5 hPa Calm   1.0 mph /  1.6 km/h 98 % 0.00 in /  0 mm
08:13 56.7 °F /  13.7 °C 56.1 °F /  13.4 °C 29.99 in /  1015.5 hPa SE 1.0 mph /  1.6 km/h   98 % 0.00 in /  0 mm
08:18 57.0 °F /  13.9 °C 56.5 °F /  13.6 °C 29.99 in /  1015.5 hPa SSE 1.0 mph /  1.6 km/h 1.0 mph /  1.6 km/h 98 % 0.00 in /  0 mm
08:23 57.2 °F /  14 °C 56.7 °F /  13.7 °C 30.00 in /  1015.8 hPa South 1.0 mph /  1.6 km/h 2.0 mph /  3.2 km/h 98 % 0.00 in /  0 mm
08:28 57.6 °F /  14.2 °C 57.0 °F /  13.9 °C 30.00 in /  1015.8 hPa ESE 1.0 mph /  1.6 km/h 3.0 mph /  4.8 km/h 98 % 0.00 in /  0 mm
08:33 57.7 °F /  14.3 °C 57.2 °F /  14 °C 30.00 in /  1015.8 hPa Calm   3.0 mph /  4.8 km/h 98 % 0.00 in /  0 mm
08:38 58.3 °F /  14.6 °C 57.7 °F /  14.3 °C 30.00 in /  1015.8 hPa Calm   3.0 mph /  4.8 km/h 98 % 0.00 in /  0 mm
08:43 58.6 °F /  14.8 °C 58.1 °F /  14.5 °C 30.00 in /  1015.8 hPa SSE 1.0 mph /  1.6 km/h 3.0 mph /  4.8 km/h 98 % 0.00 in /  0 mm
08:48 58.8 °F /  14.9 °C 58.3 °F /  14.6 °C 30.01 in /  1016.1 hPa SE 1.0 mph /  1.6 km/h 3.0 mph /  4.8 km/h 98 % 0.00 in /  0 mm
08:53 59.2 °F /  15.1 °C 58.6 °F /  14.8 °C 30.01 in /  1016.1 hPa SE 1.0 mph /  1.6 km/h 3.0 mph /  4.8 km/h 98 % 0.00 in /  0 mm
08:58 59.5 °F /  15.3 °C 59.0 °F /  15 °C 30.01 in /  1016.1 hPa SSW 1.0 mph /  1.6 km/h 3.0 mph /  4.8 km/h 98 % 0.00 in /  0 mm
09:03 60.1 °F /  15.6 °C 59.5 °F /  15.3 °C 30.01 in /  1016.1 hPa SW 1.0 mph /  1.6 km/h 4.0 mph /  6.4 km/h 98 % 0.00 in /  0 mm
09:08 60.4 °F /  15.8 °C 59.9 °F /  15.5 °C 30.02 in /  1016.5 hPa Calm   4.0 mph /  6.4 km/h 98 % 0.00 in /  0 mm
09:13 61.0 °F /  16.1 °C 60.4 °F /  15.8 °C 30.02 in /  1016.5 hPa SSW 2.0 mph /  3.2 km/h 4.0 mph /  6.4 km/h 98 % 0.00 in /  0 mm
09:18 61.3 °F /  16.3 °C 60.4 °F /  15.8 °C 30.02 in /  1016.5 hPa SSW 2.0 mph /  3.2 km/h 4.0 mph /  6.4 km/h 97 % 0.00 in /  0 mm
09:23 61.7 °F /  16.5 °C 60.8 °F /  16 °C 30.02 in /  1016.5 hPa SSE 3.0 mph /  4.8 km/h 4.0 mph /  6.4 km/h 97 % 0.00 in /  0 mm
09:28 62.1 °F /  16.7 °C 61.0 °F /  16.1 °C 30.02 in /  1016.5 hPa SSE 3.0 mph /  4.8 km/h 5.0 mph /  8 km/h 96 % 0.00 in /  0 mm
09:33 62.4 °F /  16.9 °C 61.3 °F /  16.3 °C 30.02 in /  1016.5 hPa SSW 2.0 mph /  3.2 km/h 5.0 mph /  8 km/h 96 % 0.00 in /  0 mm
09:38 62.8 °F /  17.1 °C 61.3 °F /  16.3 °C 30.02 in /  1016.5 hPa SSE 2.0 mph /  3.2 km/h 7.0 mph /  11.3 km/h 95 % 0.00 in /  0 mm
09:43 63.0 °F /  17.2 °C 61.5 °F /  16.4 °C 30.02 in /  1016.5 hPa SSE 2.0 mph /  3.2 km/h 8.0 mph /  12.9 km/h 95 % 0.00 in /  0 mm
09:48 63.3 °F /  17.4 °C 61.5 °F /  16.4 °C 30.03 in /  1016.8 hPa SSW 2.0 mph /  3.2 km/h 8.0 mph /  12.9 km/h 94 % 0.00 in /  0 mm
09:53 63.9 °F /  17.7 °C 62.1 °F /  16.7 °C 30.03 in /  1016.8 hPa South 4.0 mph /  6.4 km/h 8.0 mph /  12.9 km/h 94 % 0.00 in /  0 mm
09:58 64.2 °F /  17.9 °C 62.4 °F /  16.9 °C 30.03 in /  1016.8 hPa SSW 5.0 mph /  8 km/h 7.0 mph /  11.3 km/h 94 % 0.00 in /  0 mm
10:03 64.8 °F /  18.2 °C 62.4 °F /  16.9 °C 30.03 in /  1016.8 hPa South 7.0 mph /  11.3 km/h 7.0 mph /  11.3 km/h 92 % 0.00 in /  0 mm
10:08 65.1 °F /  18.4 °C 62.8 °F /  17.1 °C 30.02 in /  1016.5 hPa SE 2.0 mph /  3.2 km/h 10.0 mph /  16.1 km/h 92 % 0.00 in /  0 mm
10:13 65.7 °F /  18.7 °C 63.0 °F /  17.2 °C 30.02 in /  1016.5 hPa SW 4.0 mph /  6.4 km/h 10.0 mph /  16.1 km/h 91 % 0.00 in /  0 mm
10:18 66.2 °F /  19 °C 63.5 °F /  17.5 °C 30.03 in /  1016.8 hPa SE 4.0 mph /  6.4 km/h 10.0 mph /  16.1 km/h 91 % 0.00 in /  0 mm
10:23 66.6 °F /  19.2 °C 63.5 °F /  17.5 °C 30.03 in /  1016.8 hPa South 4.0 mph /  6.4 km/h 8.0 mph /  12.9 km/h 90 % 0.00 in /  0 mm
10:28 67.1 °F /  19.5 °C 63.7 °F /  17.6 °C 30.03 in /  1016.8 hPa SSE 2.0 mph /  3.2 km/h 11.0 mph /  17.7 km/h 89 % 0.00 in /  0 mm
10:33 67.8 °F /  19.9 °C 64.2 °F /  17.9 °C 30.03 in /  1016.8 hPa SSE 4.0 mph /  6.4 km/h 11.0 mph /  17.7 km/h 88 % 0.00 in /  0 mm
10:38 68.5 °F /  20.3 °C 64.8 °F /  18.2 °C 30.03 in /  1016.8 hPa SW 6.0 mph /  9.7 km/h 11.0 mph /  17.7 km/h 88 % 0.00 in /  0 mm
10:43 68.7 °F /  20.4 °C 64.4 °F /  18 °C 30.03 in /  1016.8 hPa SSW 4.0 mph /  6.4 km/h 10.0 mph /  16.1 km/h 86 % 0.00 in /  0 mm
10:48 69.3 °F /  20.7 °C 64.9 °F /  18.3 °C 30.03 in /  1016.8 hPa SSE 2.0 mph /  3.2 km/h 11.0 mph /  17.7 km/h 86 % 0.00 in /  0 mm
10:53 69.4 °F /  20.8 °C 64.4 °F /  18 °C 30.03 in /  1016.8 hPa SW 8.0 mph /  12.9 km/h 11.0 mph /  17.7 km/h 84 % 0.00 in /  0 mm
10:58 69.6 °F /  20.9 °C 64.6 °F /  18.1 °C 30.02 in /  1016.5 hPa South 7.0 mph /  11.3 km/h 12.0 mph /  19.3 km/h 84 % 0.00 in /  0 mm
11:03 70.2 °F /  21.2 °C 64.8 °F /  18.2 °C 30.02 in /  1016.5 hPa South 2.0 mph /  3.2 km/h 12.0 mph /  19.3 km/h 83 % 0.00 in /  0 mm
11:08 70.5 °F /  21.4 °C 64.4 °F /  18 °C 30.02 in /  1016.5 hPa South 3.0 mph /  4.8 km/h 12.0 mph /  19.3 km/h 81 % 0.00 in /  0 mm
11:13 70.7 °F /  21.5 °C 64.6 °F /  18.1 °C 30.02 in /  1016.5 hPa SSW 6.0 mph /  9.7 km/h 11.0 mph /  17.7 km/h 81 % 0.00 in /  0 mm
11:18 70.9 °F /  21.6 °C 64.8 °F /  18.2 °C 30.02 in /  1016.5 hPa SE 1.0 mph /  1.6 km/h 12.0 mph /  19.3 km/h 81 % 0.00 in /  0 mm
11:23 71.4 °F /  21.9 °C 64.9 °F /  18.3 °C 30.03 in /  1016.8 hPa WNW 2.0 mph /  3.2 km/h 12.0 mph /  19.3 km/h 80 % 0.00 in /  0 mm
11:28 71.8 °F /  22.1 °C 64.6 °F /  18.1 °C 30.03 in /  1016.8 hPa NW 3.0 mph /  4.8 km/h 12.0 mph /  19.3 km/h 78 % 0.00 in /  0 mm
11:33 72.0 °F /  22.2 °C 64.4 °F /  18 °C 30.02 in /  1016.5 hPa SW 10.0 mph /  16.1 km/h 10.0 mph /  16.1 km/h 77 % 0.00 in /  0 mm
11:38 71.8 °F /  22.1 °C 63.9 °F /  17.7 °C 30.02 in /  1016.5 hPa North 2.0 mph /  3.2 km/h 14.0 mph /  22.5 km/h 76 % 0.00 in /  0 mm
11:43 71.6 °F /  22 °C 64.0 °F /  17.8 °C 30.01 in /  1016.1 hPa SSW 8.0 mph /  12.9 km/h 14.0 mph /  22.5 km/h 77 % 0.00 in /  0 mm
11:48 72.0 °F /  22.2 °C 64.4 °F /  18 °C 30.01 in /  1016.1 hPa SSW 15.0 mph /  24.1 km/h 15.0 mph /  24.1 km/h 77 % 0.00 in /  0 mm
11:53 72.1 °F /  22.3 °C 64.2 °F /  17.9 °C 30.01 in /  1016.1 hPa ESE 5.0 mph /  8 km/h 15.0 mph /  24.1 km/h 76 % 0.00 in /  0 mm
11:56 72.1 °F /  22.3 °C 64.6 °F /  18.1 °C 30.01 in /  1016.1 hPa SSW 6.0 mph /  9.7 km/h 15.0 mph /  24.1 km/h 77 % 0.00 in /  0 mm
12:01 72.3 °F /  22.4 °C 64.4 °F /  18 °C 30.00 in /  1015.8 hPa SSE 7.0 mph /  11.3 km/h 15.0 mph /  24.1 km/h 76 % 0.00 in /  0 mm
12:06 72.3 °F /  22.4 °C 64.4 °F /  18 °C 30.00 in /  1015.8 hPa SW 6.0 mph /  9.7 km/h 13.0 mph /  20.9 km/h 76 % 0.00 in /  0 mm
12:11 72.7 °F /  22.6 °C 64.8 °F /  18.2 °C 30.00 in /  1015.8 hPa SW 6.0 mph /  9.7 km/h 13.0 mph /  20.9 km/h 76 % 0.00 in /  0 mm
12:16 73.4 °F /  23 °C 64.9 °F /  18.3 °C 29.99 in /  1015.5 hPa SSW 7.0 mph /  11.3 km/h 14.0 mph /  22.5 km/h 75 % 0.00 in /  0 mm
12:21 74.1 °F /  23.4 °C 65.3 °F /  18.5 °C 29.99 in /  1015.5 hPa SW 7.0 mph /  11.3 km/h 14.0 mph /  22.5 km/h 74 % 0.00 in /  0 mm
12:26 74.5 °F /  23.6 °C 65.7 °F /  18.7 °C 29.99 in /  1015.5 hPa NW 1.0 mph /  1.6 km/h 14.0 mph /  22.5 km/h 74 % 0.00 in /  0 mm
12:31 74.7 °F /  23.7 °C 64.6 °F /  18.1 °C 29.99 in /  1015.5 hPa South 2.0 mph /  3.2 km/h 14.0 mph /  22.5 km/h 71 % 0.00 in /  0 mm
12:36 74.7 °F /  23.7 °C 65.1 °F /  18.4 °C 29.99 in /  1015.5 hPa WSW 3.0 mph /  4.8 km/h 14.0 mph /  22.5 km/h 72 % 0.00 in /  0 mm
12:42 74.7 °F /  23.7 °C 65.1 °F /  18.4 °C 29.99 in /  1015.5 hPa WSW 1.0 mph /  1.6 km/h 10.0 mph /  16.1 km/h 72 % 0.00 in /  0 mm
12:47 74.7 °F /  23.7 °C 64.6 °F /  18.1 °C 29.99 in /  1015.5 hPa SW 4.0 mph /  6.4 km/h 10.0 mph /  16.1 km/h 71 % 0.00 in /  0 mm
12:52 74.8 °F /  23.8 °C 64.4 °F /  18 °C 29.99 in /  1015.5 hPa SW 3.0 mph /  4.8 km/h 10.0 mph /  16.1 km/h 70 % 0.00 in /  0 mm
12:57 75.0 °F /  23.9 °C 64.2 °F /  17.9 °C 29.99 in /  1015.5 hPa SW 3.0 mph /  4.8 km/h 12.0 mph /  19.3 km/h 69 % 0.00 in /  0 mm
13:02 75.4 °F /  24.1 °C 64.0 °F /  17.8 °C 29.99 in /  1015.5 hPa SSW 8.0 mph /  12.9 km/h 12.0 mph /  19.3 km/h 68 % 0.00 in /  0 mm
13:07 75.6 °F /  24.2 °C 63.9 °F /  17.7 °C 29.98 in /  1015.1 hPa SSW 2.0 mph /  3.2 km/h 12.0 mph /  19.3 km/h 67 % 0.00 in /  0 mm
13:12 75.7 °F /  24.3 °C 64.8 °F /  18.2 °C 29.98 in /  1015.1 hPa SW 7.0 mph /  11.3 km/h 12.0 mph /  19.3 km/h 69 % 0.00 in /  0 mm
13:17 76.5 °F /  24.7 °C 64.8 °F /  18.2 °C 29.97 in /  1014.8 hPa SSW 5.0 mph /  8 km/h 12.0 mph /  19.3 km/h 67 % 0.00 in /  0 mm
13:22 76.8 °F /  24.9 °C 64.6 °F /  18.1 °C 29.97 in /  1014.8 hPa SW 3.0 mph /  4.8 km/h 12.0 mph /  19.3 km/h 66 % 0.00 in /  0 mm
13:27 76.8 °F /  24.9 °C 64.2 °F /  17.9 °C 29.97 in /  1014.8 hPa South 6.0 mph /  9.7 km/h 9.0 mph /  14.5 km/h 65 % 0.00 in /  0 mm
13:32 76.6 °F /  24.8 °C 64.0 °F /  17.8 °C 29.97 in /  1014.8 hPa SW 6.0 mph /  9.7 km/h 9.0 mph /  14.5 km/h 65 % 0.00 in /  0 mm
13:37 76.5 °F /  24.7 °C 64.2 °F /  17.9 °C 29.97 in /  1014.8 hPa South 3.0 mph /  4.8 km/h 10.0 mph /  16.1 km/h 66 % 0.00 in /  0 mm
13:42 76.6 °F /  24.8 °C 64.4 °F /  18 °C 29.97 in /  1014.8 hPa SSW 8.0 mph /  12.9 km/h 10.0 mph /  16.1 km/h 66 % 0.00 in /  0 mm
13:47 76.6 °F /  24.8 °C 64.0 °F /  17.8 °C 29.97 in /  1014.8 hPa SW 5.0 mph /  8 km/h 10.0 mph /  16.1 km/h 65 % 0.00 in /  0 mm
13:52 76.6 °F /  24.8 °C 64.0 °F /  17.8 °C 29.97 in /  1014.8 hPa WSW 4.0 mph /  6.4 km/h 12.0 mph /  19.3 km/h 65 % 0.00 in /  0 mm
13:57 76.8 °F /  24.9 °C 64.2 °F /  17.9 °C 29.96 in /  1014.4 hPa SSW 3.0 mph /  4.8 km/h 12.0 mph /  19.3 km/h 65 % 0.00 in /  0 mm
14:02 77.0 °F /  25 °C 63.9 °F /  17.7 °C 29.96 in /  1014.4 hPa NW 3.0 mph /  4.8 km/h 12.0 mph /  19.3 km/h 64 % 0.00 in /  0 mm
14:07 77.2 °F /  25.1 °C 64.0 °F /  17.8 °C 29.96 in /  1014.4 hPa SW 2.0 mph /  3.2 km/h 10.0 mph /  16.1 km/h 64 % 0.00 in /  0 mm
14:12 77.4 °F /  25.2 °C 63.9 °F /  17.7 °C 29.96 in /  1014.4 hPa SSW 2.0 mph /  3.2 km/h 10.0 mph /  16.1 km/h 63 % 0.00 in /  0 mm
14:17 77.5 °F /  25.3 °C 64.4 °F /  18 °C 29.96 in /  1014.4 hPa SW 5.0 mph /  8 km/h 10.0 mph /  16.1 km/h 64 % 0.00 in /  0 mm
14:21 77.5 °F /  25.3 °C 63.9 °F /  17.7 °C 29.96 in /  1014.4 hPa NW 4.0 mph /  6.4 km/h 10.0 mph /  16.1 km/h 63 % 0.00 in /  0 mm
14:27 77.5 °F /  25.3 °C 63.9 °F /  17.7 °C 29.96 in /  1014.4 hPa SSW 10.0 mph /  16.1 km/h 10.0 mph /  16.1 km/h 63 % 0.00 in /  0 mm
14:32 77.5 °F /  25.3 °C 63.5 °F /  17.5 °C 29.96 in /  1014.4 hPa South 4.0 mph /  6.4 km/h 12.0 mph /  19.3 km/h 62 % 0.00 in /  0 mm
14:37 77.7 °F /  25.4 °C 63.7 °F /  17.6 °C 29.97 in /  1014.8 hPa West 2.0 mph /  3.2 km/h 12.0 mph /  19.3 km/h 62 % 0.00 in /  0 mm
14:42 77.7 °F /  25.4 °C 63.7 °F /  17.6 °C 29.97 in /  1014.8 hPa SSW 2.0 mph /  3.2 km/h 12.0 mph /  19.3 km/h 62 % 0.00 in /  0 mm
14:47 77.9 °F /  25.5 °C 63.3 °F /  17.4 °C 29.97 in /  1014.8 hPa West 1.0 mph /  1.6 km/h 10.0 mph /  16.1 km/h 61 % 0.00 in /  0 mm
14:52 78.3 °F /  25.7 °C 63.7 °F /  17.6 °C 29.97 in /  1014.8 hPa WSW 4.0 mph /  6.4 km/h 10.0 mph /  16.1 km/h 61 % 0.00 in /  0 mm
14:57 78.3 °F /  25.7 °C 63.3 °F /  17.4 °C 29.97 in /  1014.8 hPa SW 1.0 mph /  1.6 km/h 10.0 mph /  16.1 km/h 60 % 0.00 in /  0 mm
15:02 78.6 °F /  25.9 °C 63.5 °F /  17.5 °C 29.97 in /  1014.8 hPa WNW 2.0 mph /  3.2 km/h 7.0 mph /  11.3 km/h 60 % 0.00 in /  0 mm
15:07 79.0 °F /  26.1 °C 63.5 °F /  17.5 °C 29.97 in /  1014.8 hPa SW 2.0 mph /  3.2 km/h 7.0 mph /  11.3 km/h 59 % 0.00 in /  0 mm
15:12 78.6 °F /  25.9 °C 63.5 °F /  17.5 °C 29.97 in /  1014.8 hPa SSW 3.0 mph /  4.8 km/h 6.0 mph /  9.7 km/h 60 % 0.00 in /  0 mm
15:17 78.4 °F /  25.8 °C 63.3 °F /  17.4 °C 29.97 in /  1014.8 hPa ENE 1.0 mph /  1.6 km/h 5.0 mph /  8 km/h 60 % 0.00 in /  0 mm
15:22 79.0 °F /  26.1 °C 63.9 °F /  17.7 °C 29.97 in /  1014.8 hPa WSW 1.0 mph /  1.6 km/h 5.0 mph /  8 km/h 60 % 0.00 in /  0 mm
15:27 79.0 °F /  26.1 °C 63.9 °F /  17.7 °C 29.97 in /  1014.8 hPa SW 2.0 mph /  3.2 km/h 5.0 mph /  8 km/h 60 % 0.00 in /  0 mm
15:32 78.6 °F /  25.9 °C 63.5 °F /  17.5 °C 29.97 in /  1014.8 hPa SSW 3.0 mph /  4.8 km/h 5.0 mph /  8 km/h 60 % 0.00 in /  0 mm
15:37 78.4 °F /  25.8 °C 63.3 °F /  17.4 °C 29.97 in /  1014.8 hPa SW 1.0 mph /  1.6 km/h 5.0 mph /  8 km/h 60 % 0.00 in /  0 mm
15:42 78.3 °F /  25.7 °C 63.3 °F /  17.4 °C 29.98 in /  1015.1 hPa WNW 1.0 mph /  1.6 km/h 9.0 mph /  14.5 km/h 60 % 0.00 in /  0 mm
15:47 78.1 °F /  25.6 °C 63.1 °F /  17.3 °C 29.98 in /  1015.1 hPa West 1.0 mph /  1.6 km/h 9.0 mph /  14.5 km/h 60 % 0.00 in /  0 mm
15:52 77.7 °F /  25.4 °C 63.1 °F /  17.3 °C 29.98 in /  1015.1 hPa SW 2.0 mph /  3.2 km/h 9.0 mph /  14.5 km/h 61 % 0.00 in /  0 mm
15:57 77.5 °F /  25.3 °C 63.0 °F /  17.2 °C 29.98 in /  1015.1 hPa SW 1.0 mph /  1.6 km/h 8.0 mph /  12.9 km/h 61 % 0.00 in /  0 mm
16:02 77.5 °F /  25.3 °C 63.0 °F /  17.2 °C 29.98 in /  1015.1 hPa SSW 4.0 mph /  6.4 km/h 8.0 mph /  12.9 km/h 61 % 0.00 in /  0 mm
16:07 77.4 °F /  25.2 °C 63.3 °F /  17.4 °C 29.99 in /  1015.5 hPa WNW 1.0 mph /  1.6 km/h 8.0 mph /  12.9 km/h 62 % 0.00 in /  0 mm
16:12 76.6 °F /  24.8 °C 63.5 °F /  17.5 °C 29.99 in /  1015.5 hPa NNE 5.0 mph /  8 km/h 6.0 mph /  9.7 km/h 64 % 0.00 in /  0 mm
16:17 75.9 °F /  24.4 °C 63.3 °F /  17.4 °C 29.99 in /  1015.5 hPa NNW 5.0 mph /  8 km/h 7.0 mph /  11.3 km/h 65 % 0.00 in /  0 mm
16:22 75.6 °F /  24.2 °C 63.3 °F /  17.4 °C 29.99 in /  1015.5 hPa NNW 4.0 mph /  6.4 km/h 7.0 mph /  11.3 km/h 66 % 0.00 in /  0 mm
16:27 75.4 °F /  24.1 °C 63.1 °F /  17.3 °C 29.99 in /  1015.5 hPa NW 5.0 mph /  8 km/h 7.0 mph /  11.3 km/h 66 % 0.00 in /  0 mm
16:32 75.0 °F /  23.9 °C 63.0 °F /  17.2 °C 29.99 in /  1015.5 hPa NNW 4.0 mph /  6.4 km/h 10.0 mph /  16.1 km/h 66 % 0.00 in /  0 mm
16:37 75.0 °F /  23.9 °C 63.0 °F /  17.2 °C 29.99 in /  1015.5 hPa NW 6.0 mph /  9.7 km/h 10.0 mph /  16.1 km/h 66 % 0.00 in /  0 mm
16:42 74.8 °F /  23.8 °C 62.8 °F /  17.1 °C 30.00 in /  1015.8 hPa NW 3.0 mph /  4.8 km/h 10.0 mph /  16.1 km/h 66 % 0.00 in /  0 mm
16:47 74.8 °F /  23.8 °C 62.2 °F /  16.8 °C 30.00 in /  1015.8 hPa NW 6.0 mph /  9.7 km/h 8.0 mph /  12.9 km/h 65 % 0.00 in /  0 mm
16:52 74.7 °F /  23.7 °C 62.1 °F /  16.7 °C 30.00 in /  1015.8 hPa NNW 3.0 mph /  4.8 km/h 8.0 mph /  12.9 km/h 65 % 0.00 in /  0 mm
16:57 74.5 °F /  23.6 °C 61.9 °F /  16.6 °C 30.00 in /  1015.8 hPa NW 5.0 mph /  8 km/h 8.0 mph /  12.9 km/h 65 % 0.00 in /  0 mm
17:02 74.1 °F /  23.4 °C 61.5 °F /  16.4 °C 30.00 in /  1015.8 hPa NNW 3.0 mph /  4.8 km/h 8.0 mph /  12.9 km/h 65 % 0.00 in /  0 mm
17:07 74.1 °F /  23.4 °C 61.5 °F /  16.4 °C 30.01 in /  1016.1 hPa NW 5.0 mph /  8 km/h 7.0 mph /  11.3 km/h 65 % 0.00 in /  0 mm
17:12 73.9 °F /  23.3 °C 61.3 °F /  16.3 °C 30.01 in /  1016.1 hPa NNW 1.0 mph /  1.6 km/h 7.0 mph /  11.3 km/h 65 % 0.00 in /  0 mm
17:17 73.8 °F /  23.2 °C 61.3 °F /  16.3 °C 30.01 in /  1016.1 hPa NNW 4.0 mph /  6.4 km/h 7.0 mph /  11.3 km/h 65 % 0.00 in /  0 mm
17:22 73.6 °F /  23.1 °C 61.2 °F /  16.2 °C 30.01 in /  1016.1 hPa NW 3.0 mph /  4.8 km/h 7.0 mph /  11.3 km/h 65 % 0.00 in /  0 mm
17:27 73.2 °F /  22.9 °C 60.8 °F /  16 °C 30.01 in /  1016.1 hPa NNW 2.0 mph /  3.2 km/h 7.0 mph /  11.3 km/h 65 % 0.00 in /  0 mm
17:32 73.2 °F /  22.9 °C 60.8 °F /  16 °C 30.01 in /  1016.1 hPa NW 2.0 mph /  3.2 km/h 7.0 mph /  11.3 km/h 65 % 0.00 in /  0 mm
17:37 73.0 °F /  22.8 °C 61.0 °F /  16.1 °C 30.01 in /  1016.1 hPa NW 1.0 mph /  1.6 km/h 6.0 mph /  9.7 km/h 66 % 0.00 in /  0 mm
17:42 72.9 °F /  22.7 °C 60.8 °F /  16 °C 30.01 in /  1016.1 hPa NNW 2.0 mph /  3.2 km/h 5.0 mph /  8 km/h 66 % 0.00 in /  0 mm
17:47 72.7 °F /  22.6 °C 60.6 °F /  15.9 °C 30.02 in /  1016.5 hPa NW 1.0 mph /  1.6 km/h 3.0 mph /  4.8 km/h 66 % 0.00 in /  0 mm
17:52 72.3 °F /  22.4 °C 60.8 °F /  16 °C 30.02 in /  1016.5 hPa NW 1.0 mph /  1.6 km/h 3.0 mph /  4.8 km/h 67 % 0.00 in /  0 mm
17:57 72.1 °F /  22.3 °C 60.6 °F /  15.9 °C 30.02 in /  1016.5 hPa NW 1.0 mph /  1.6 km/h 2.0 mph /  3.2 km/h 67 % 0.00 in /  0 mm
18:02 71.8 °F /  22.1 °C 60.6 °F /  15.9 °C 30.03 in /  1016.8 hPa NW 2.0 mph /  3.2 km/h 3.0 mph /  4.8 km/h 68 % 0.00 in /  0 mm
18:07 71.4 °F /  21.9 °C 60.3 °F /  15.7 °C 30.03 in /  1016.8 hPa NNW 1.0 mph /  1.6 km/h 3.0 mph /  4.8 km/h 68 % 0.00 in /  0 mm
18:12 71.2 °F /  21.8 °C 60.1 °F /  15.6 °C 30.03 in /  1016.8 hPa NW 1.0 mph /  1.6 km/h 4.0 mph /  6.4 km/h 68 % 0.00 in /  0 mm
18:17 71.1 °F /  21.7 °C 60.4 °F /  15.8 °C 30.04 in /  1017.2 hPa Calm   4.0 mph /  6.4 km/h 69 % 0.00 in /  0 mm
18:22 70.9 °F /  21.6 °C 60.3 °F /  15.7 °C 30.04 in /  1017.2 hPa Calm   4.0 mph /  6.4 km/h 69 % 0.00 in /  0 mm
18:27 70.3 °F /  21.3 °C 60.1 °F /  15.6 °C 30.04 in /  1017.2 hPa Calm   2.0 mph /  3.2 km/h 70 % 0.00 in /  0 mm
18:32 70.0 °F /  21.1 °C 60.1 °F /  15.6 °C 30.04 in /  1017.2 hPa Calm   2.0 mph /  3.2 km/h 71 % 0.00 in /  0 mm
18:37 69.6 °F /  20.9 °C 60.3 °F /  15.7 °C 30.05 in /  1017.5 hPa Calm   1.0 mph /  1.6 km/h 72 % 0.00 in /  0 mm
18:42 69.6 °F /  20.9 °C 60.3 °F /  15.7 °C 30.05 in /  1017.5 hPa NW 1.0 mph /  1.6 km/h 2.0 mph /  3.2 km/h 72 % 0.00 in /  0 mm
18:47 69.6 °F /  20.9 °C 60.3 °F /  15.7 °C 30.06 in /  1017.8 hPa NW 2.0 mph /  3.2 km/h 2.0 mph /  3.2 km/h 72 % 0.00 in /  0 mm
18:52 69.6 °F /  20.9 °C 60.3 °F /  15.7 °C 30.06 in /  1017.8 hPa NW 3.0 mph /  4.8 km/h 5.0 mph /  8 km/h 72 % 0.00 in /  0 mm
18:57 69.8 °F /  21 °C 60.4 °F /  15.8 °C 30.06 in /  1017.8 hPa NW 2.0 mph /  3.2 km/h 5.0 mph /  8 km/h 72 % 0.00 in /  0 mm
19:02 69.8 °F /  21 °C 60.4 °F /  15.8 °C 30.07 in /  1018.2 hPa NNE 3.0 mph /  4.8 km/h 8.0 mph /  12.9 km/h 72 % 0.00 in /  0 mm
19:07 69.6 °F /  20.9 °C 60.3 °F /  15.7 °C 30.07 in /  1018.2 hPa NW 1.0 mph /  1.6 km/h 8.0 mph /  12.9 km/h 72 % 0.00 in /  0 mm
19:12 69.6 °F /  20.9 °C 60.3 °F /  15.7 °C 30.07 in /  1018.2 hPa NW 3.0 mph /  4.8 km/h 8.0 mph /  12.9 km/h 72 % 0.00 in /  0 mm
19:17 69.4 °F /  20.8 °C 60.1 °F /  15.6 °C 30.08 in /  1018.5 hPa NNE 4.0 mph /  6.4 km/h 7.0 mph /  11.3 km/h 72 % 0.00 in /  0 mm
19:22 69.3 °F /  20.7 °C 59.9 °F /  15.5 °C 30.08 in /  1018.5 hPa NW 2.0 mph /  3.2 km/h 4.0 mph /  6.4 km/h 72 % 0.00 in /  0 mm
19:27 69.3 °F /  20.7 °C 59.9 °F /  15.5 °C 30.08 in /  1018.5 hPa NW 2.0 mph /  3.2 km/h 4.0 mph /  6.4 km/h 72 % 0.00 in /  0 mm
19:32 69.1 °F /  20.6 °C 59.7 °F /  15.4 °C 30.09 in /  1018.8 hPa North 8.0 mph /  12.9 km/h 8.0 mph /  12.9 km/h 72 % 0.00 in /  0 mm
19:37 68.5 °F /  20.3 °C 57.2 °F /  14 °C 30.09 in /  1018.8 hPa NW 7.0 mph /  11.3 km/h 14.0 mph /  22.5 km/h 67 % 0.00 in /  0 mm
19:42 68.2 °F /  20.1 °C 56.3 °F /  13.5 °C 30.10 in /  1019.2 hPa NNW 3.0 mph /  4.8 km/h 14.0 mph /  22.5 km/h 66 % 0.00 in /  0 mm
19:47 67.8 °F /  19.9 °C 55.6 °F /  13.1 °C 30.10 in /  1019.2 hPa NW 2.0 mph /  3.2 km/h 14.0 mph /  22.5 km/h 65 % 0.00 in /  0 mm
19:52 67.5 °F /  19.7 °C 54.5 °F /  12.5 °C 30.10 in /  1019.2 hPa NNW 3.0 mph /  4.8 km/h 13.0 mph /  20.9 km/h 63 % 0.00 in /  0 mm
19:57 66.9 °F /  19.4 °C 52.5 °F /  11.4 °C 30.11 in /  1019.5 hPa NNW 6.0 mph /  9.7 km/h 8.0 mph /  12.9 km/h 60 % 0.00 in /  0 mm
20:02 66.7 °F /  19.3 °C 51.1 °F /  10.6 °C 30.11 in /  1019.5 hPa NNW 7.0 mph /  11.3 km/h 8.0 mph /  12.9 km/h 57 % 0.00 in /  0 mm
20:07 66.6 °F /  19.2 °C 50.4 °F /  10.2 °C 30.12 in /  1019.9 hPa NW 5.0 mph /  8 km/h 11.0 mph /  17.7 km/h 56 % 0.00 in /  0 mm
20:12 66.4 °F /  19.1 °C 49.3 °F /  9.6 °C 30.12 in /  1019.9 hPa NW 8.0 mph /  12.9 km/h 11.0 mph /  17.7 km/h 54 % 0.00 in /  0 mm
20:17 66.2 °F /  19 °C 48.0 °F /  8.9 °C 30.12 in /  1019.9 hPa NW 8.0 mph /  12.9 km/h 11.0 mph /  17.7 km/h 52 % 0.00 in /  0 mm
20:22 66.0 °F /  18.9 °C 47.8 °F /  8.8 °C 30.12 in /  1019.9 hPa NW 5.0 mph /  8 km/h 12.0 mph /  19.3 km/h 52 % 0.00 in /  0 mm
20:27 65.8 °F /  18.8 °C 47.7 °F /  8.7 °C 30.13 in /  1020.2 hPa NW 5.0 mph /  8 km/h 12.0 mph /  19.3 km/h 52 % 0.00 in /  0 mm
20:32 65.7 °F /  18.7 °C 47.5 °F /  8.6 °C 30.13 in /  1020.2 hPa NNW 5.0 mph /  8 km/h 12.0 mph /  19.3 km/h 52 % 0.00 in /  0 mm
20:37 65.5 °F /  18.6 °C 47.5 °F /  8.6 °C 30.13 in /  1020.2 hPa NW 5.0 mph /  8 km/h 8.0 mph /  12.9 km/h 52 % 0.00 in /  0 mm
20:42 65.1 °F /  18.4 °C 47.1 °F /  8.4 °C 30.13 in /  1020.2 hPa NW 5.0 mph /  8 km/h 7.0 mph /  11.3 km/h 52 % 0.00 in /  0 mm
20:47 65.1 °F /  18.4 °C 47.1 °F /  8.4 °C 30.14 in /  1020.5 hPa NNW 9.0 mph /  14.5 km/h 9.0 mph /  14.5 km/h 52 % 0.00 in /  0 mm
20:52 64.9 °F /  18.3 °C 46.9 °F /  8.3 °C 30.14 in /  1020.5 hPa NW 3.0 mph /  4.8 km/h 9.0 mph /  14.5 km/h 52 % 0.00 in /  0 mm
20:57 64.9 °F /  18.3 °C 46.9 °F /  8.3 °C 30.14 in /  1020.5 hPa NNW 1.0 mph /  1.6 km/h 9.0 mph /  14.5 km/h 52 % 0.00 in /  0 mm
21:02 64.8 °F /  18.2 °C 46.8 °F /  8.2 °C 30.14 in /  1020.5 hPa NNW 2.0 mph /  3.2 km/h 9.0 mph /  14.5 km/h 52 % 0.00 in /  0 mm
21:07 64.8 °F /  18.2 °C 46.8 °F /  8.2 °C 30.14 in /  1020.5 hPa NW 2.0 mph /  3.2 km/h 9.0 mph /  14.5 km/h 52 % 0.00 in /  0 mm
21:12 64.6 °F /  18.1 °C 46.6 °F /  8.1 °C 30.14 in /  1020.5 hPa North 3.0 mph /  4.8 km/h 9.0 mph /  14.5 km/h 52 % 0.00 in /  0 mm
21:17 64.4 °F /  18 °C 46.9 °F /  8.3 °C 30.14 in /  1020.5 hPa NW 3.0 mph /  4.8 km/h 9.0 mph /  14.5 km/h 53 % 0.00 in /  0 mm
21:22 64.2 °F /  17.9 °C 46.8 °F /  8.2 °C 30.14 in /  1020.5 hPa NW 4.0 mph /  6.4 km/h 7.0 mph /  11.3 km/h 53 % 0.00 in /  0 mm
21:27 64.0 °F /  17.8 °C 46.6 °F /  8.1 °C 30.14 in /  1020.5 hPa NW 2.0 mph /  3.2 km/h 8.0 mph /  12.9 km/h 53 % 0.00 in /  0 mm
21:32 64.0 °F /  17.8 °C 46.6 °F /  8.1 °C 30.15 in /  1020.9 hPa NW 2.0 mph /  3.2 km/h 8.0 mph /  12.9 km/h 53 % 0.00 in /  0 mm
21:37 63.9 °F /  17.7 °C 46.9 °F /  8.3 °C 30.15 in /  1020.9 hPa NNW 3.0 mph /  4.8 km/h 8.0 mph /  12.9 km/h 54 % 0.00 in /  0 mm
21:42 63.9 °F /  17.7 °C 46.9 °F /  8.3 °C 30.15 in /  1020.9 hPa NNW 4.0 mph /  6.4 km/h 8.0 mph /  12.9 km/h 54 % 0.00 in /  0 mm
21:47 63.7 °F /  17.6 °C 47.3 °F /  8.5 °C 30.15 in /  1020.9 hPa NW 4.0 mph /  6.4 km/h 8.0 mph /  12.9 km/h 55 % 0.00 in /  0 mm
21:52 63.5 °F /  17.5 °C 47.1 °F /  8.4 °C 30.15 in /  1020.9 hPa NW 2.0 mph /  3.2 km/h 8.0 mph /  12.9 km/h 55 % 0.00 in /  0 mm
21:57 63.3 °F /  17.4 °C 46.9 °F /  8.3 °C 30.15 in /  1020.9 hPa NW 2.0 mph /  3.2 km/h 8.0 mph /  12.9 km/h 55 % 0.00 in /  0 mm
22:02 63.1 °F /  17.3 °C 47.1 °F /  8.4 °C 30.16 in /  1021.2 hPa NW 3.0 mph /  4.8 km/h 6.0 mph /  9.7 km/h 56 % 0.00 in /  0 mm
22:07 63.1 °F /  17.3 °C 47.1 °F /  8.4 °C 30.16 in /  1021.2 hPa NW 3.0 mph /  4.8 km/h 9.0 mph /  14.5 km/h 56 % 0.00 in /  0 mm
22:12 63.1 °F /  17.3 °C 47.1 °F /  8.4 °C 30.16 in /  1021.2 hPa NW 4.0 mph /  6.4 km/h 9.0 mph /  14.5 km/h 56 % 0.00 in /  0 mm
22:17 63.0 °F /  17.2 °C 47.5 °F /  8.6 °C 30.17 in /  1021.6 hPa NNW 2.0 mph /  3.2 km/h 9.0 mph /  14.5 km/h 57 % 0.00 in /  0 mm
22:22 63.0 °F /  17.2 °C 47.5 °F /  8.6 °C 30.17 in /  1021.6 hPa NW 3.0 mph /  4.8 km/h 6.0 mph /  9.7 km/h 57 % 0.00 in /  0 mm
22:27 63.0 °F /  17.2 °C 47.5 °F /  8.6 °C 30.17 in /  1021.6 hPa West 4.0 mph /  6.4 km/h 7.0 mph /  11.3 km/h 57 % 0.00 in /  0 mm
22:32 62.8 °F /  17.1 °C 47.8 °F /  8.8 °C 30.17 in /  1021.6 hPa NW 4.0 mph /  6.4 km/h 7.0 mph /  11.3 km/h 58 % 0.00 in /  0 mm
22:37 62.8 °F /  17.1 °C 47.8 °F /  8.8 °C 30.17 in /  1021.6 hPa NW 2.0 mph /  3.2 km/h 10.0 mph /  16.1 km/h 58 % 0.00 in /  0 mm
22:42 62.4 °F /  16.9 °C 47.8 °F /  8.8 °C 30.17 in /  1021.6 hPa NW 3.0 mph /  4.8 km/h 10.0 mph /  16.1 km/h 59 % 0.00 in /  0 mm
22:47 62.2 °F /  16.8 °C 48.2 °F /  9 °C 30.17 in /  1021.6 hPa NW 3.0 mph /  4.8 km/h 11.0 mph /  17.7 km/h 60 % 0.00 in /  0 mm
22:52 62.1 °F /  16.7 °C 48.0 °F /  8.9 °C 30.17 in /  1021.6 hPa WNW 1.0 mph /  1.6 km/h 11.0 mph /  17.7 km/h 60 % 0.00 in /  0 mm
22:58 61.9 °F /  16.6 °C 48.2 °F /  9 °C 30.17 in /  1021.6 hPa NNW 1.0 mph /  1.6 km/h 11.0 mph /  17.7 km/h 61 % 0.00 in /  0 mm
23:03 61.5 °F /  16.4 °C 48.0 °F /  8.9 °C 30.17 in /  1021.6 hPa North 4.0 mph /  6.4 km/h 6.0 mph /  9.7 km/h 61 % 0.00 in /  0 mm
23:08 61.3 °F /  16.3 °C 48.2 °F /  9 °C 30.17 in /  1021.6 hPa NNW 2.0 mph /  3.2 km/h 6.0 mph /  9.7 km/h 62 % 0.00 in /  0 mm
23:13 61.2 °F /  16.2 °C 48.4 °F /  9.1 °C 30.17 in /  1021.6 hPa NNW 6.0 mph /  9.7 km/h 6.0 mph /  9.7 km/h 63 % 0.00 in /  0 mm
23:18 61.0 °F /  16.1 °C 48.4 °F /  9.1 °C 30.17 in /  1021.6 hPa NNW 3.0 mph /  4.8 km/h 6.0 mph /  9.7 km/h 63 % 0.00 in /  0 mm
23:23 60.8 °F /  16 °C 48.6 °F /  9.2 °C 30.17 in /  1021.6 hPa NNW 3.0 mph /  4.8 km/h 7.0 mph /  11.3 km/h 64 % 0.00 in /  0 mm
23:28 60.4 °F /  15.8 °C 48.6 °F /  9.2 °C 30.17 in /  1021.6 hPa WNW 2.0 mph /  3.2 km/h 7.0 mph /  11.3 km/h 65 % 0.00 in /  0 mm
23:33 60.4 °F /  15.8 °C 48.6 °F /  9.2 °C 30.18 in /  1021.9 hPa North 2.0 mph /  3.2 km/h 7.0 mph /  11.3 km/h 65 % 0.00 in /  0 mm
23:38 60.3 °F /  15.7 °C 48.9 °F /  9.4 °C 30.18 in /  1021.9 hPa NNW 3.0 mph /  4.8 km/h 7.0 mph /  11.3 km/h 66 % 0.00 in /  0 mm
23:43 60.3 °F /  15.7 °C 49.3 °F /  9.6 °C 30.18 in /  1021.9 hPa NNW 3.0 mph /  4.8 km/h 7.0 mph /  11.3 km/h 67 % 0.00 in /  0 mm
23:48 60.3 °F /  15.7 °C 49.3 °F /  9.6 °C 30.18 in /  1021.9 hPa NW 1.0 mph /  1.6 km/h 7.0 mph /  11.3 km/h 67 % 0.00 in /  0 mm
23:53 60.3 °F /  15.7 °C 49.6 °F /  9.8 °C 30.18 in /  1021.9 hPa NW 2.0 mph /  3.2 km/h 7.0 mph /  11.3 km/h 68 % 0.00 in /  0 mm
23:58 60.3 °F /  15.7 °C 49.6 °F /  9.8 °C 30.19 in /  1022.2 hPa North 2.0 mph /  3.2 km/h 7.0 mph /  11.3 km/h 68 % 0.00 in /  0 mm
Spring, Texas: Villages of Bridgestone
Compliments of Weather Underground - 2.75 mb

Script developed by  Jim McMurry - jmcmurry@mwt.net Adapted for the template by  Wim van der Kuil - Leuven-Template.eu

You find our weather info also at:

UK Metoffice

WeatherCloud

Weather Underground

Mid-South Weather Network

AWEKAS

Citizen Weather Observer Program (CWOP)

HAMweather, WeatherForYou, PWS Weather

Equipment we use:

Weather-station
Davis Vantage Vue

Weather-program
Meteohub

Weather-server
Debian 7.9 x86 (Guest)

Provider
DreamHost

Davis Vantage Vue

Meteohub

Debian 7.9 x86 (Guest)

DreamHost